Amstetten, Austria

10:18 AM CET on February 08, 2016 (GMT +0100)
DBSolutions, Winklarn, Austria | | Change Station
CLOSE
Current Station
Personal Weather Station
Location: Winklarn, NIEDERöSTERREICH
Elevation: 1050 ft
Nearby Weather Stations

Elev 1050 ft 48.09 °N, 14.85 °E | Updated 10 seconds ago

Scattered Clouds
Scattered Clouds
46.2 °F
Feels Like 46 °F
N
0.9
Wind Variable Wind from South
Gusts 2.5 mph

Today
High -- | Low -- °F
--% Chance of Precip.
Yesterday
High -- | Low -- °F
Precip. -- in
Pressure 29.86 in
Visibility 6.2 miles
Clouds Few 7000 ft
Scattered Clouds 10000 ft
Windchill 46 °F
Dew Point 29 °F
Humidity 51%
Rainfall 0.00 in
Snow Depth Not available.
7:19 AM 5:10 PM
Waning Crescent, 0% visible
METAR LOWL 080850Z 09009KT 9999 FEW070 SCT100 07/02 Q1011 NOSIG
Pressure 29.86 in
Visibility 6.2 miles
Clouds Few 7000 ft
Scattered Clouds 10000 ft
Windchill 46 °F
Dew Point 29 °F
Humidity 51%
Rainfall 0.00 in
Snow Depth Not available.
7:19 AM 5:10 PM
Waning Crescent, 0% visible
METAR LOWL 080850Z 09009KT 9999 FEW070 SCT100 07/02 Q1011 NOSIG

10-Day Weather Forecast

Almanac

Astronomy

Feb. 08, 2016 Rise Set
Actual Time
Civil Twilight
Nautical Twilight
Astronomical Twilight
Moon
Length of Visible Light
Length of Day
Tomorrow will be .
, % of the Moon is Illuminated

Today's Extremes

Country Highs Country Lows

Community

WunderPhotos

Upload Photos

1,891,412 photos uploaded!

WunderBlog® & News

Nearby

Air Quality

  Air Quality AQ Index Pollutant
Not available.

Snow Depth

Station Depth Elevation

Earthquake Activity

City Distance Mag. Time & Date
Minimum magnitude displayed is 2.5.

Coastal Water Temperatures

Place Temperature

Stations

Nearby Weather Stations

Station Location Temp. Windchill Dew Point Humidity Wind Precip. Elev Updated Type